Time;durP1;ratioP1;P1;durP2;ratioP2;P2;SDS_P1;SDS_P2;PMS_P1;PMS_P2;Temp;Humidity;BMP_temperature;BMP_pressure;BME280_temperature;BME280_humidity;BME280_pressure;Samples;Min_cycle;Max_cycle;Signal;HPM_P1;HPM_P2
2022/03/19 00:00:28;;;;;;;;;;;;;;;;;;1052692;28;3086;-74
2022/03/19 00:01:13;;;;;;;;;;;;;;;;;;1051094;28;3802;-74
2022/03/19 00:01:43;;;;;;;;;;;;;;;;;;1051128;28;3566;-73
2022/03/19 00:02:14;;;;;;;;;;;;;;;;;;1053221;28;3750;-72
2022/03/19 00:02:44;;;;;;;;;;;;;;;;;;1054053;28;2016;-72
2022/03/19 00:03:15;;;;;;;;;;;;;;;;;;1053682;28;3758;-73
2022/03/19 00:03:45;;;;;;;;;;;;;;;;;;1049637;28;3176;-72
2022/03/19 00:04:16;;;;;;;;;;;;;;;;;;1048442;28;3755;-73
2022/03/19 00:04:46;;;;;;;;;;;;;;;;;;1046910;28;1644;-72
2022/03/19 00:05:16;;;;;;;;;;;;;;;;;;1045472;28;3953;-73
2022/03/19 00:05:47;;;;;;;;;;;;;;;;;;1050486;28;2038;-73
2022/03/19 00:06:17;;;;;;;;;;;;;;;;;;1053340;28;3913;-72
2022/03/19 00:06:47;;;;;;;;;;;;;;;;;;1054016;28;3885;-72
2022/03/19 00:07:18;;;;;;;;;;;;;;;;;;1051559;28;2765;-73
2022/03/19 00:07:49;;;;;;;;;;;;;;;;;;1051327;28;3806;-72
2022/03/19 00:08:20;;;;;;;;;;;;;;;;;;1052381;28;2557;-72
2022/03/19 00:08:50;;;;;;;;;;;;;;;;;;1050825;28;3823;-73
2022/03/19 00:09:20;;;;;;;;;;;;;;;;;;1052002;28;2417;-72
2022/03/19 00:09:51;;;;;;;;;;;;;;;;;;1050841;28;3917;-73
2022/03/19 00:10:22;;;;;;;;;;;;;;;;;;1051503;28;2469;-72
2022/03/19 00:10:52;;;;;;;;;;;;;;;;;;1050512;28;4007;-74
2022/03/19 00:11:23;;;;;;;;;;;;;;;;;;1051075;28;2631;-72
2022/03/19 00:11:54;;;;;;;;;;;;;;;;;;1051998;28;3896;-73
2022/03/19 00:12:24;;;;;;;;;;;;;;;;;;1052243;28;2143;-72
2022/03/19 00:12:54;;;;;;;;;;;;;;;;;;1051267;28;3875;-74
2022/03/19 00:13:25;;;;;;;;;;;;;;;;;;1052859;28;2414;-73
2022/03/19 00:13:55;;;;;;;;;;;;;;;;;;1054622;28;3801;-73
2022/03/19 00:14:25;;;;;;;;;;;;;;;;;;1053384;28;2669;-72
2022/03/19 00:14:56;;;;;;;;;;;;;;;;;;1054075;28;3899;-73
2022/03/19 00:15:26;;;;;;;;;;;;;;;;;;1052360;28;2275;-73
2022/03/19 00:15:56;;;;;;;;;;;;;;;;;;1050999;28;3811;-73
2022/03/19 00:16:27;;;;;;;;;;;;;;;;;;1052674;28;2796;-74
2022/03/19 00:16:57;;;;;;;;;;;;;;;;;;1051114;28;3954;-73
2022/03/19 00:17:28;;;;;;;;;;;;;;;;;;1051517;28;1790;-74
2022/03/19 00:17:58;;;;;;;;;;;;;;;;;;1051761;28;3930;-71
2022/03/19 00:18:28;;;;;;;;;;;;;;;;;;1051384;28;1757;-71
2022/03/19 00:18:59;;;;;;;;;;;;;;;;;;1049802;28;4025;-72
2022/03/19 00:19:29;;;;;;;;;;;;;;;;;;1052128;28;2942;-74
2022/03/19 00:20:00;;;;;;;;;;;;;;;;;;1050733;28;3942;-71
2022/03/19 00:20:31;;;;;;;;;;;;;;;;;;1052925;28;1667;-73
2022/03/19 00:21:07;;;;;;;;;;;;;;;;;;1052323;28;4360;-72
2022/03/19 00:21:38;;;;;;;;;;;;;;;;;;1051655;28;2814;-72
2022/03/19 00:22:08;;;;;;;;;;;;;;;;;;1051454;28;3777;-75
2022/03/19 00:22:39;;;;;;;;;;;;;;;;;;1050870;28;2751;-74
2022/03/19 00:23:09;;;;;;;;;;;;;;;;;;1053403;28;3999;-73
2022/03/19 00:23:39;;;;;;;;;;;;;;;;;;1050961;28;2041;-72
2022/03/19 00:24:10;;;;;;;;;;;;;;;;;;1051748;28;4061;-72
2022/03/19 00:24:40;;;;;;;;;;;;;;;;;;1051925;28;2425;-72
2022/03/19 00:25:11;;;;;;;;;;;;;;;;;;1051448;28;4068;-72
2022/03/19 00:25:42;;;;;;;;;;;;;;;;;;1052942;28;2301;-72
2022/03/19 00:26:12;;;;;;;;;;;;;;;;;;1051049;28;3843;-73
2022/03/19 00:26:43;;;;;;;;;;;;;;;;;;1052540;28;2848;-73
2022/03/19 00:27:13;;;;;;;;;;;;;;;;;;1051375;28;4117;-73
2022/03/19 00:27:43;;;;;;;;;;;;;;;;;;1051349;28;3016;-74
2022/03/19 00:28:18;;;;;;;;;;;;;;;;;;1051124;28;3790;-71
2022/03/19 00:28:49;;;;;;;;;;;;;;;;;;1052524;28;4048;-73
2022/03/19 00:29:19;;;;;;;;;;;;;;;;;;1050988;28;2902;-75
2022/03/19 00:29:49;;;;;;;;;;;;;;;;;;1051175;28;3913;-74
2022/03/19 00:30:20;;;;;;;;;;;;;;;;;;1052124;28;1630;-74
2022/03/19 00:30:50;;;;;;;;;;;;;;;;;;1050313;28;3847;-73
2022/03/19 00:31:21;;;;;;;;;;;;;;;;;;1053064;28;1624;-73
2022/03/19 00:31:51;;;;;;;;;;;;;;;;;;1051311;28;4068;-73
2022/03/19 00:32:21;;;;;;;;;;;;;;;;;;1051963;28;2845;-71
2022/03/19 00:32:51;;;;;;;;;;;;;;;;;;1049975;28;5592;-73
2022/03/19 00:33:22;;;;;;;;;;;;;;;;;;1051262;28;1924;-72
2022/03/19 00:33:52;;;;;;;;;;;;;;;;;;1050991;28;4070;-71
2022/03/19 00:34:22;;;;;;;;;;;;;;;;;;1051558;28;2744;-74
2022/03/19 00:34:52;;;;;;;;;;;;;;;;;;1051464;28;3828;-73
2022/03/19 00:35:23;;;;;;;;;;;;;;;;;;1051444;28;1826;-73
2022/03/19 00:35:53;;;;;;;;;;;;;;;;;;1051053;28;4050;-74
2022/03/19 00:36:23;;;;;;;;;;;;;;;;;;1051158;28;1670;-74
2022/03/19 00:36:54;;;;;;;;;;;;;;;;;;1051371;28;3851;-75
2022/03/19 00:37:25;;;;;;;;;;;;;;;;;;1051801;28;2276;-73
2022/03/19 00:37:55;;;;;;;;;;;;;;;;;;1049437;28;3963;-73
2022/03/19 00:38:26;;;;;;;;;;;;;;;;;;1050244;28;2796;-74
2022/03/19 00:39:10;;;;;;;;;;;;;;;;;;1048322;28;4110;-73
2022/03/19 00:39:47;;;;;;;;;;;;;;;;;;1052613;27;4095;-73
2022/03/19 00:40:18;;;;;;;;;;;;;;;;;;1055142;28;2681;-74
2022/03/19 00:40:49;;;;;;;;;;;;;;;;;;1054595;28;3812;-72
2022/03/19 00:41:20;;;;;;;;;;;;;;;;;;1053775;27;1735;-72
2022/03/19 00:41:52;;;;;;;;;;;;;;;;;;1051484;28;3889;-74
2022/03/19 00:42:22;;;;;;;;;;;;;;;;;;1052033;28;2765;-72
2022/03/19 00:42:53;;;;;;;;;;;;;;;;;;1051151;28;3954;-74
2022/03/19 00:43:23;;;;;;;;;;;;;;;;;;1054126;28;2836;-72
2022/03/19 00:43:53;;;;;;;;;;;;;;;;;;1053461;28;3951;-72
2022/03/19 00:44:24;;;;;;;;;;;;;;;;;;1050362;28;2702;-73
2022/03/19 00:44:54;;;;;;;;;;;;;;;;;;1050301;28;3960;-74
2022/03/19 00:45:24;;;;;;;;;;;;;;;;;;1053677;28;2638;-73
2022/03/19 00:45:55;;;;;;;;;;;;;;;;;;1052627;28;3905;-73
2022/03/19 00:46:25;;;;;;;;;;;;;;;;;;1051818;28;2671;-72
2022/03/19 00:46:55;;;;;;;;;;;;;;;;;;1050912;28;3802;-73
2022/03/19 00:47:25;;;;;;;;;;;;;;;;;;1052274;28;2796;-73
2022/03/19 00:47:56;;;;;;;;;;;;;;;;;;1050963;28;3954;-73
2022/03/19 00:48:27;;;;;;;;;;;;;;;;;;1051582;28;1859;-75
2022/03/19 00:48:59;;;;;;;;;;;;;;;;;;1050606;28;4006;-72
2022/03/19 00:49:29;;;;;;;;;;;;;;;;;;1051596;28;2456;-72
2022/03/19 00:50:00;;;;;;;;;;;;;;;;;;1052359;28;3842;-72
2022/03/19 00:50:30;;;;;;;;;;;;;;;;;;1053733;28;2539;-73
2022/03/19 00:51:00;;;;;;;;;;;;;;;;;;1054014;28;4030;-72
2022/03/19 00:51:32;;;;;;;;;;;;;;;;;;1054648;28;1729;-73
2022/03/19 00:52:02;;;;;;;;;;;;;;;;;;1052920;28;3885;-73
2022/03/19 00:52:33;;;;;;;;;;;;;;;;;;1052359;28;2456;-71
2022/03/19 00:53:03;;;;;;;;;;;;;;;;;;1050918;28;3961;-72
2022/03/19 00:53:33;;;;;;;;;;;;;;;;;;1051450;28;1718;-72
2022/03/19 00:54:12;;;;;;;;;;;;;;;;;;1051185;28;4097;-72
2022/03/19 00:54:42;;;;;;;;;;;;;;;;;;1051806;28;2317;-73
2022/03/19 00:55:13;;;;;;;;;;;;;;;;;;1051093;28;3801;-74
2022/03/19 00:55:43;;;;;;;;;;;;;;;;;;1052261;28;2295;-72
2022/03/19 00:56:13;;;;;;;;;;;;;;;;;;1051324;28;3922;-72
2022/03/19 00:56:46;;;;;;;;;;;;;;;;;;1052353;28;1661;-72
2022/03/19 00:57:16;;;;;;;;;;;;;;;;;;1051174;28;3798;-72
2022/03/19 00:57:47;;;;;;;;;;;;;;;;;;1051801;28;2198;-72
2022/03/19 00:58:17;;;;;;;;;;;;;;;;;;1051686;28;5596;-72
2022/03/19 00:58:47;;;;;;;;;;;;;;;;;;1051417;28;3924;-73
2022/03/19 00:59:18;;;;;;;;;;;;;;;;;;1051017;28;1799;-73
2022/03/19 00:59:48;;;;;;;;;;;;;;;;;;1051910;28;3951;-73
2022/03/19 01:00:24;;;;;;;;;;;;;;;;;;1054521;28;1983;-72
2022/03/19 01:00:54;;;;;;;;;;;;;;;;;;1052091;28;3955;-73
2022/03/19 01:01:25;;;;;;;;;;;;;;;;;;1053466;28;2486;-71
2022/03/19 01:01:56;;;;;;;;;;;;;;;;;;1052639;28;4159;-74
2022/03/19 01:02:26;;;;;;;;;;;;;;;;;;1052749;28;2604;-72
2022/03/19 01:02:56;;;;;;;;;;;;;;;;;;1050493;28;4115;-74
2022/03/19 01:03:27;;;;;;;;;;;;;;;;;;1051349;28;1559;-72
2022/03/19 01:03:57;;;;;;;;;;;;;;;;;;1053387;28;3814;-74
2022/03/19 01:04:27;;;;;;;;;;;;;;;;;;1054294;28;2765;-71
2022/03/19 01:04:58;;;;;;;;;;;;;;;;;;1053919;28;4121;-74
2022/03/19 01:05:28;;;;;;;;;;;;;;;;;;1054297;28;2430;-73
2022/03/19 01:05:58;;;;;;;;;;;;;;;;;;1051425;28;4016;-72
2022/03/19 01:06:29;;;;;;;;;;;;;;;;;;1053846;28;2138;-74
2022/03/19 01:06:59;;;;;;;;;;;;;;;;;;1053707;28;3887;-72
2022/03/19 01:07:30;;;;;;;;;;;;;;;;;;1048329;28;2871;-74
2022/03/19 01:08:00;;;;;;;;;;;;;;;;;;1048042;28;4067;-73
2022/03/19 01:08:30;;;;;;;;;;;;;;;;;;1050919;28;1543;-74
2022/03/19 01:09:00;;;;;;;;;;;;;;;;;;1048752;28;4289;-71
2022/03/19 01:09:31;;;;;;;;;;;;;;;;;;1054219;28;2265;-74
2022/03/19 01:10:01;;;;;;;;;;;;;;;;;;1052925;28;3880;-74
2022/03/19 01:10:32;;;;;;;;;;;;;;;;;;1054776;28;1755;-71
2022/03/19 01:11:03;;;;;;;;;;;;;;;;;;1053026;28;3888;-71
2022/03/19 01:11:33;;;;;;;;;;;;;;;;;;1053496;28;1505;-74
2022/03/19 01:12:03;;;;;;;;;;;;;;;;;;1047524;28;4038;-74
2022/03/19 01:12:34;;;;;;;;;;;;;;;;;;1048900;28;2296;-73
2022/03/19 01:13:05;;;;;;;;;;;;;;;;;;1049253;28;4027;-72
2022/03/19 01:13:35;;;;;;;;;;;;;;;;;;1050312;28;1613;-71
2022/03/19 01:14:06;;;;;;;;;;;;;;;;;;1053149;28;3802;-73
2022/03/19 01:14:36;;;;;;;;;;;;;;;;;;1053414;28;2389;-72
2022/03/19 01:15:08;;;;;;;;;;;;;;;;;;1052203;28;4019;-73
2022/03/19 01:15:39;;;;;;;;;;;;;;;;;;1050808;28;2299;-72
2022/03/19 01:16:09;;;;;;;;;;;;;;;;;;1051293;28;3748;-72
2022/03/19 01:16:39;;;;;;;;;;;;;;;;;;1050954;28;1963;-73
2022/03/19 01:17:09;;;;;;;;;;;;;;;;;;1050316;28;4168;-72
2022/03/19 01:17:40;;;;;;;;;;;;;;;;;;1048752;28;2863;-74
2022/03/19 01:18:10;;;;;;;;;;;;;;;;;;1049220;28;3791;-73
2022/03/19 01:18:41;;;;;;;;;;;;;;;;;;1049909;28;1268;-73
2022/03/19 01:19:11;;;;;;;;;;;;;;;;;;1048722;28;4008;-72
2022/03/19 01:19:53;;;;;;;;;;;;;;;;;;1051696;28;1816;-73
2022/03/19 01:20:26;;;;;;;;;;;;;;;;;;1050595;28;3963;-72
2022/03/19 01:20:57;;;;;;;;;;;;;;;;;;1050744;28;3966;-73
2022/03/19 01:21:27;;;;;;;;;;;;;;;;;;1052332;28;2788;-73
2022/03/19 01:21:57;;;;;;;;;;;;;;;;;;1050946;28;3944;-71
2022/03/19 01:22:28;;;;;;;;;;;;;;;;;;1052553;28;2804;-72
2022/03/19 01:22:59;;;;;;;;;;;;;;;;;;1051799;28;3829;-73
2022/03/19 01:23:29;;;;;;;;;;;;;;;;;;1053509;28;2811;-73
2022/03/19 01:23:59;;;;;;;;;;;;;;;;;;1053861;28;3792;-72
2022/03/19 01:24:29;;;;;;;;;;;;;;;;;;1054708;28;2447;-73
2022/03/19 01:25:04;;;;;;;;;;;;;;;;;;1049982;28;3845;-73
2022/03/19 01:25:34;;;;;;;;;;;;;;;;;;1052198;28;1617;-72
2022/03/19 01:26:04;;;;;;;;;;;;;;;;;;1051598;28;3951;-73
2022/03/19 01:26:35;;;;;;;;;;;;;;;;;;1051572;28;1626;-73
2022/03/19 01:27:05;;;;;;;;;;;;;;;;;;1052519;28;3788;-73
2022/03/19 01:27:36;;;;;;;;;;;;;;;;;;1051843;28;3009;-73
2022/03/19 01:28:06;;;;;;;;;;;;;;;;;;1051795;28;3797;-72
2022/03/19 01:28:36;;;;;;;;;;;;;;;;;;1055212;28;2732;-73
2022/03/19 01:29:07;;;;;;;;;;;;;;;;;;1054439;28;3877;-72
2022/03/19 01:29:37;;;;;;;;;;;;;;;;;;1054897;28;2429;-73
2022/03/19 01:30:08;;;;;;;;;;;;;;;;;;1054709;28;3982;-71
2022/03/19 01:30:38;;;;;;;;;;;;;;;;;;1052879;27;2199;-74
2022/03/19 01:31:11;;;;;;;;;;;;;;;;;;1052707;28;3893;-75
2022/03/19 01:31:41;;;;;;;;;;;;;;;;;;1051684;28;1948;-72
2022/03/19 01:32:11;;;;;;;;;;;;;;;;;;1047698;28;4078;-74
2022/03/19 01:32:41;;;;;;;;;;;;;;;;;;1048063;28;1725;-73
2022/03/19 01:33:12;;;;;;;;;;;;;;;;;;1043957;28;4025;-73
2022/03/19 01:33:42;;;;;;;;;;;;;;;;;;1048740;28;2675;-71
2022/03/19 01:34:12;;;;;;;;;;;;;;;;;;1051406;28;3959;-73
2022/03/19 01:34:43;;;;;;;;;;;;;;;;;;1049784;28;2269;-72
2022/03/19 01:35:13;;;;;;;;;;;;;;;;;;1055110;28;3877;-72
2022/03/19 01:35:44;;;;;;;;;;;;;;;;;;1054529;28;2437;-73
2022/03/19 01:36:14;;;;;;;;;;;;;;;;;;1054515;28;3953;-74
2022/03/19 01:36:44;;;;;;;;;;;;;;;;;;1051783;28;2620;-73
2022/03/19 01:37:14;;;;;;;;;;;;;;;;;;1054865;28;3986;-73
2022/03/19 01:37:45;;;;;;;;;;;;;;;;;;1054781;28;2916;-73
2022/03/19 01:38:15;;;;;;;;;;;;;;;;;;1055048;28;3791;-73
2022/03/19 01:38:59;;;;;;;;;;;;;;;;;;1053576;28;2945;-73
2022/03/19 01:39:36;;;;;;;;;;;;;;;;;;1047722;28;3805;-73
2022/03/19 01:40:07;;;;;;;;;;;;;;;;;;1048475;28;3790;-72
2022/03/19 01:40:38;;;;;;;;;;;;;;;;;;1049111;28;2424;-73
2022/03/19 01:41:08;;;;;;;;;;;;;;;;;;1048132;28;3782;-71
2022/03/19 01:41:41;;;;;;;;;;;;;;;;;;1049878;28;2635;-72
2022/03/19 01:42:12;;;;;;;;;;;;;;;;;;1049592;28;4201;-73
2022/03/19 01:42:43;;;;;;;;;;;;;;;;;;1049116;28;2515;-72
2022/03/19 01:43:13;;;;;;;;;;;;;;;;;;1047759;28;3760;-73
2022/03/19 01:43:44;;;;;;;;;;;;;;;;;;1050747;28;1700;-72
2022/03/19 01:44:18;;;;;;;;;;;;;;;;;;1046853;28;4176;-74
2022/03/19 01:44:48;;;;;;;;;;;;;;;;;;1050063;28;4000;-73
2022/03/19 01:45:23;;;;;;;;;;;;;;;;;;1050946;28;2781;-72
2022/03/19 01:45:53;;;;;;;;;;;;;;;;;;1049731;28;3822;-73
2022/03/19 01:46:23;;;;;;;;;;;;;;;;;;1051886;28;1697;-73
2022/03/19 01:46:57;;;;;;;;;;;;;;;;;;1044744;28;3923;-74
2022/03/19 01:47:28;;;;;;;;;;;;;;;;;;1046112;28;1833;-74
2022/03/19 01:47:59;;;;;;;;;;;;;;;;;;1050062;28;3783;-73
2022/03/19 01:48:29;;;;;;;;;;;;;;;;;;1049332;28;2021;-74
2022/03/19 01:49:00;;;;;;;;;;;;;;;;;;1048021;28;4004;-73
2022/03/19 01:49:30;;;;;;;;;;;;;;;;;;1049468;28;1611;-71
2022/03/19 01:50:01;;;;;;;;;;;;;;;;;;1048250;28;3782;-72
2022/03/19 01:50:31;;;;;;;;;;;;;;;;;;1049996;28;2489;-72
2022/03/19 01:51:02;;;;;;;;;;;;;;;;;;1050082;28;4315;-73
2022/03/19 01:51:32;;;;;;;;;;;;;;;;;;1049790;28;2916;-73
2022/03/19 01:52:06;;;;;;;;;;;;;;;;;;1047639;28;3831;-73
2022/03/19 01:52:36;;;;;;;;;;;;;;;;;;1050500;28;1275;-72
2022/03/19 01:53:06;;;;;;;;;;;;;;;;;;1050272;28;4278;-75
2022/03/19 01:53:37;;;;;;;;;;;;;;;;;;1049591;28;2631;-73
2022/03/19 01:54:14;;;;;;;;;;;;;;;;;;1046035;28;4120;-74
2022/03/19 01:54:46;;;;;;;;;;;;;;;;;;1047673;28;2241;-72
2022/03/19 01:55:18;;;;;;;;;;;;;;;;;;1050181;28;3727;-74
2022/03/19 01:55:50;;;;;;;;;;;;;;;;;;1046803;28;3801;-73
2022/03/19 01:56:20;;;;;;;;;;;;;;;;;;1050870;28;2042;-73
2022/03/19 01:56:51;;;;;;;;;;;;;;;;;;1049153;28;4050;-73
2022/03/19 01:57:24;;;;;;;;;;;;;;;;;;1049236;28;1487;-72
2022/03/19 01:57:55;;;;;;;;;;;;;;;;;;1048836;28;3888;-73
2022/03/19 01:58:26;;;;;;;;;;;;;;;;;;1049267;28;1606;-72
2022/03/19 01:58:56;;;;;;;;;;;;;;;;;;1049694;28;3950;-72
2022/03/19 01:59:36;;;;;;;;;;;;;;;;;;1050479;28;3023;-73
2022/03/19 02:00:08;;;;;;;;;;;;;;;;;;1049565;28;4108;-72
2022/03/19 02:00:38;;;;;;;;;;;;;;;;;;1048403;28;2801;-72
2022/03/19 02:01:08;;;;;;;;;;;;;;;;;;1050166;28;3969;-73
2022/03/19 02:01:39;;;;;;;;;;;;;;;;;;1049632;28;1729;-72
2022/03/19 02:02:11;;;;;;;;;;;;;;;;;;1050896;28;3813;-73
2022/03/19 02:02:42;;;;;;;;;;;;;;;;;;1050735;28;1851;-73
2022/03/19 02:03:12;;;;;;;;;;;;;;;;;;1050092;28;4073;-73
2022/03/19 02:03:42;;;;;;;;;;;;;;;;;;1051075;28;1820;-73
2022/03/19 02:04:12;;;;;;;;;;;;;;;;;;1048814;28;3845;-73
2022/03/19 02:04:44;;;;;;;;;;;;;;;;;;1049687;28;1610;-73
2022/03/19 02:05:19;;;;;;;;;;;;;;;;;;1050695;28;3921;-74
2022/03/19 02:05:49;;;;;;;;;;;;;;;;;;1049348;28;4148;-74
2022/03/19 02:06:22;;;;;;;;;;;;;;;;;;1050052;28;2498;-72
2022/03/19 02:06:53;;;;;;;;;;;;;;;;;;1049291;28;4912;-72
2022/03/19 02:07:23;;;;;;;;;;;;;;;;;;1049684;28;1302;-73
2022/03/19 02:07:53;;;;;;;;;;;;;;;;;;1047604;28;3804;-72
2022/03/19 02:08:24;;;;;;;;;;;;;;;;;;1049201;28;2408;-71
2022/03/19 02:08:55;;;;;;;;;;;;;;;;;;1048793;28;3956;-75
2022/03/19 02:09:25;;;;;;;;;;;;;;;;;;1048347;28;2803;-73
2022/03/19 02:10:02;;;;;;;;;;;;;;;;;;1047061;28;4211;-72
2022/03/19 02:10:34;;;;;;;;;;;;;;;;;;1050248;28;1987;-71
2022/03/19 02:11:11;;;;;;;;;;;;;;;;;;1049699;28;4270;-72
2022/03/19 02:11:41;;;;;;;;;;;;;;;;;;1045687;28;1631;-72
2022/03/19 02:12:12;;;;;;;;;;;;;;;;;;1044960;28;4316;-73
2022/03/19 02:12:44;;;;;;;;;;;;;;;;;;1042798;28;2452;-71
2022/03/19 02:13:15;;;;;;;;;;;;;;;;;;1045878;28;3932;-72
2022/03/19 02:13:45;;;;;;;;;;;;;;;;;;1048089;28;1599;-74
2022/03/19 02:14:15;;;;;;;;;;;;;;;;;;1047468;28;3724;-72
2022/03/19 02:14:47;;;;;;;;;;;;;;;;;;1049757;28;2013;-72
2022/03/19 02:15:18;;;;;;;;;;;;;;;;;;1050962;28;5242;-72
2022/03/19 02:15:48;;;;;;;;;;;;;;;;;;1048441;28;3824;-73
2022/03/19 02:16:19;;;;;;;;;;;;;;;;;;1051302;28;1646;-72
2022/03/19 02:16:49;;;;;;;;;;;;;;;;;;1050089;28;4029;-74
2022/03/19 02:17:20;;;;;;;;;;;;;;;;;;1051440;28;1521;-74
2022/03/19 02:17:50;;;;;;;;;;;;;;;;;;1044723;28;3861;-74
2022/03/19 02:18:20;;;;;;;;;;;;;;;;;;1045836;28;2918;-73
2022/03/19 02:18:51;;;;;;;;;;;;;;;;;;1044491;28;3828;-74
2022/03/19 02:19:21;;;;;;;;;;;;;;;;;;1045845;28;1689;-73
2022/03/19 02:19:52;;;;;;;;;;;;;;;;;;1050164;28;4074;-74
2022/03/19 02:20:23;;;;;;;;;;;;;;;;;;1050831;28;2149;-72
2022/03/19 02:20:57;;;;;;;;;;;;;;;;;;1049840;28;3953;-72
2022/03/19 02:21:37;;;;;;;;;;;;;;;;;;1050462;28;2189;-73
2022/03/19 02:22:08;;;;;;;;;;;;;;;;;;1050998;28;3776;-72
2022/03/19 02:22:38;;;;;;;;;;;;;;;;;;1046089;28;2709;-73
2022/03/19 02:25:46;;;;;;;;;;;;;;;;;;1048479;28;1183;-72
2022/03/19 02:26:17;;;;;;;;;;;;;;;;;;1049447;28;3869;-73
2022/03/19 02:26:47;;;;;;;;;;;;;;;;;;1048839;28;2609;-73
2022/03/19 02:27:17;;;;;;;;;;;;;;;;;;1048002;28;3831;-74
2022/03/19 02:27:48;;;;;;;;;;;;;;;;;;1040354;28;3999;-72
2022/03/19 02:28:18;;;;;;;;;;;;;;;;;;1042216;28;2516;-73
2022/03/19 02:28:48;;;;;;;;;;;;;;;;;;1038148;28;4037;-73
2022/03/19 02:29:19;;;;;;;;;;;;;;;;;;1039261;28;2004;-73
2022/03/19 02:29:51;;;;;;;;;;;;;;;;;;1050491;28;4069;-73
2022/03/19 02:30:22;;;;;;;;;;;;;;;;;;1051235;28;2103;-72
2022/03/19 02:30:52;;;;;;;;;;;;;;;;;;1049872;28;3952;-74
2022/03/19 02:31:22;;;;;;;;;;;;;;;;;;1049116;28;2744;-73
2022/03/19 02:31:54;;;;;;;;;;;;;;;;;;1049838;28;4121;-73
2022/03/19 02:32:25;;;;;;;;;;;;;;;;;;1049735;28;2326;-73
2022/03/19 02:32:56;;;;;;;;;;;;;;;;;;1047225;28;3944;-72
2022/03/19 02:33:26;;;;;;;;;;;;;;;;;;1049025;28;2744;-74
2022/03/19 02:33:56;;;;;;;;;;;;;;;;;;1047992;28;4248;-74
2022/03/19 02:34:27;;;;;;;;;;;;;;;;;;1050021;28;1797;-73
2022/03/19 02:34:57;;;;;;;;;;;;;;;;;;1047941;28;3789;-73
2022/03/19 02:35:27;;;;;;;;;;;;;;;;;;1050767;28;1638;-74
2022/03/19 02:35:57;;;;;;;;;;;;;;;;;;1048588;28;3872;-72
2022/03/19 02:36:28;;;;;;;;;;;;;;;;;;1051147;28;1206;-72
2022/03/19 02:36:58;;;;;;;;;;;;;;;;;;1049481;28;3937;-72
2022/03/19 02:37:43;;;;;;;;;;;;;;;;;;1050679;28;1943;-71
2022/03/19 02:38:13;;;;;;;;;;;;;;;;;;1048205;28;4031;-73
2022/03/19 02:38:57;;;;;;;;;;;;;;;;;;1048815;28;2715;-73
2022/03/19 02:39:34;;;;;;;;;;;;;;;;;;1050029;28;4896;-73
2022/03/19 02:40:06;;;;;;;;;;;;;;;;;;1049228;28;3943;-73
2022/03/19 02:40:36;;;;;;;;;;;;;;;;;;1047890;28;2478;-72
2022/03/19 02:41:06;;;;;;;;;;;;;;;;;;1048156;28;3938;-73
2022/03/19 02:41:40;;;;;;;;;;;;;;;;;;1047845;28;2542;-71
2022/03/19 02:42:10;;;;;;;;;;;;;;;;;;1047977;28;3957;-73
2022/03/19 02:42:41;;;;;;;;;;;;;;;;;;1048050;28;1591;-72
2022/03/19 02:43:11;;;;;;;;;;;;;;;;;;1050235;28;4150;-73
2022/03/19 02:43:42;;;;;;;;;;;;;;;;;;1050175;28;2252;-72
2022/03/19 02:44:13;;;;;;;;;;;;;;;;;;1050569;28;3770;-72
2022/03/19 02:44:43;;;;;;;;;;;;;;;;;;1049866;28;2721;-72
2022/03/19 02:45:13;;;;;;;;;;;;;;;;;;1047692;28;3759;-73
2022/03/19 02:45:47;;;;;;;;;;;;;;;;;;1046395;28;2883;-72
2022/03/19 02:46:17;;;;;;;;;;;;;;;;;;1044556;28;4283;-75
2022/03/19 02:46:49;;;;;;;;;;;;;;;;;;1045515;28;3999;-72
2022/03/19 02:47:19;;;;;;;;;;;;;;;;;;1046348;28;2489;-73
2022/03/19 02:47:59;;;;;;;;;;;;;;;;;;1047507;28;4151;-73
2022/03/19 02:48:30;;;;;;;;;;;;;;;;;;1047627;28;2789;-72
2022/03/19 02:49:00;;;;;;;;;;;;;;;;;;1049235;28;4035;-72
2022/03/19 02:49:30;;;;;;;;;;;;;;;;;;1049082;28;2879;-72
2022/03/19 02:50:00;;;;;;;;;;;;;;;;;;1048464;28;4469;-73
2022/03/19 02:50:32;;;;;;;;;;;;;;;;;;1049580;28;3104;-72
2022/03/19 02:51:04;;;;;;;;;;;;;;;;;;1047265;28;3860;-72
2022/03/19 02:51:35;;;;;;;;;;;;;;;;;;1048149;28;2705;-73
2022/03/19 02:52:06;;;;;;;;;;;;;;;;;;1049157;28;3821;-72
2022/03/19 02:52:36;;;;;;;;;;;;;;;;;;1047995;28;1701;-75
2022/03/19 02:53:07;;;;;;;;;;;;;;;;;;1047491;28;3776;-71
2022/03/19 02:53:38;;;;;;;;;;;;;;;;;;1050552;28;1891;-73
2022/03/19 02:54:09;;;;;;;;;;;;;;;;;;1050315;28;3765;-73
2022/03/19 02:54:40;;;;;;;;;;;;;;;;;;1049802;28;3057;-71
2022/03/19 02:55:10;;;;;;;;;;;;;;;;;;1050161;28;4203;-74
2022/03/19 02:55:41;;;;;;;;;;;;;;;;;;1047660;28;2600;-72
2022/03/19 02:56:11;;;;;;;;;;;;;;;;;;1047349;28;3994;-73
2022/03/19 02:56:42;;;;;;;;;;;;;;;;;;1047382;28;2487;-74
2022/03/19 02:57:12;;;;;;;;;;;;;;;;;;1048136;28;3970;-73
2022/03/19 02:57:43;;;;;;;;;;;;;;;;;;1048021;28;1011;-74
2022/03/19 02:58:13;;;;;;;;;;;;;;;;;;1047877;28;3869;-75
2022/03/19 02:58:43;;;;;;;;;;;;;;;;;;1048050;28;2484;-71
2022/03/19 02:59:23;;;;;;;;;;;;;;;;;;1048131;28;3926;-73
2022/03/19 02:59:53;;;;;;;;;;;;;;;;;;1046708;28;4029;-71
2022/03/19 03:00:23;;;;;;;;;;;;;;;;;;1047793;28;1896;-72
2022/03/19 03:00:54;;;;;;;;;;;;;;;;;;1049444;28;3826;-72
2022/03/19 03:01:24;;;;;;;;;;;;;;;;;;1051038;28;2243;-74
2022/03/19 03:01:58;;;;;;;;;;;;;;;;;;1050724;28;3902;-73
2022/03/19 03:02:29;;;;;;;;;;;;;;;;;;1049824;28;2987;-73
2022/03/19 03:02:59;;;;;;;;;;;;;;;;;;1047598;28;3875;-73
2022/03/19 03:03:29;;;;;;;;;;;;;;;;;;1047901;28;2452;-73
2022/03/19 03:04:00;;;;;;;;;;;;;;;;;;1047780;28;3786;-74
2022/03/19 03:04:37;;;;;;;;;;;;;;;;;;1047764;28;2937;-72
2022/03/19 03:05:10;;;;;;;;;;;;;;;;;;1046870;28;4014;-73
2022/03/19 03:05:40;;;;;;;;;;;;;;;;;;1047718;28;1468;-72
2022/03/19 03:06:10;;;;;;;;;;;;;;;;;;1047219;28;3803;-73
2022/03/19 03:06:41;;;;;;;;;;;;;;;;;;1051132;28;1129;-71
2022/03/19 03:07:12;;;;;;;;;;;;;;;;;;1050290;28;4213;-72
2022/03/19 03:07:42;;;;;;;;;;;;;;;;;;1050305;28;2011;-72
2022/03/19 03:08:12;;;;;;;;;;;;;;;;;;1049260;28;3983;-74
2022/03/19 03:08:42;;;;;;;;;;;;;;;;;;1048220;28;1543;-72
2022/03/19 03:09:13;;;;;;;;;;;;;;;;;;1047995;28;3774;-72
2022/03/19 03:09:44;;;;;;;;;;;;;;;;;;1047413;28;2888;-73
2022/03/19 03:10:15;;;;;;;;;;;;;;;;;;1047773;28;3787;-73
2022/03/19 03:10:45;;;;;;;;;;;;;;;;;;1046947;28;2234;-73
2022/03/19 03:11:15;;;;;;;;;;;;;;;;;;1048001;28;3736;-72
2022/03/19 03:11:46;;;;;;;;;;;;;;;;;;1050585;28;1829;-74
2022/03/19 03:12:16;;;;;;;;;;;;;;;;;;1050639;28;3745;-73
2022/03/19 03:12:46;;;;;;;;;;;;;;;;;;1050413;28;1844;-74
2022/03/19 03:13:16;;;;;;;;;;;;;;;;;;1049811;28;3702;-73
2022/03/19 03:13:47;;;;;;;;;;;;;;;;;;1048422;28;1620;-72
2022/03/19 03:14:20;;;;;;;;;;;;;;;;;;1048899;28;4681;-74
2022/03/19 03:14:50;;;;;;;;;;;;;;;;;;1048152;28;3939;-74
2022/03/19 03:15:21;;;;;;;;;;;;;;;;;;1046866;28;2802;-73
2022/03/19 03:15:51;;;;;;;;;;;;;;;;;;1047568;28;3946;-73
2022/03/19 03:16:21;;;;;;;;;;;;;;;;;;1047884;28;2232;-72
2022/03/19 03:16:52;;;;;;;;;;;;;;;;;;1049458;28;3989;-72
2022/03/19 03:17:23;;;;;;;;;;;;;;;;;;1050989;28;1417;-72
2022/03/19 03:17:53;;;;;;;;;;;;;;;;;;1048848;28;3844;-72
2022/03/19 03:18:23;;;;;;;;;;;;;;;;;;1050667;28;1623;-72
2022/03/19 03:18:57;;;;;;;;;;;;;;;;;;1048716;28;3864;-73
2022/03/19 03:19:27;;;;;;;;;;;;;;;;;;1049921;28;3104;-71
2022/03/19 03:19:58;;;;;;;;;;;;;;;;;;1048871;28;4071;-74
2022/03/19 03:20:28;;;;;;;;;;;;;;;;;;1048569;28;2089;-73
2022/03/19 03:20:59;;;;;;;;;;;;;;;;;;1048359;28;3887;-72
2022/03/19 03:21:29;;;;;;;;;;;;;;;;;;1050938;28;1617;-73
2022/03/19 03:22:00;;;;;;;;;;;;;;;;;;1049852;28;3894;-73
2022/03/19 03:22:31;;;;;;;;;;;;;;;;;;1050742;28;2923;-74
2022/03/19 03:23:01;;;;;;;;;;;;;;;;;;1048608;28;3777;-74
2022/03/19 03:23:31;;;;;;;;;;;;;;;;;;1048231;28;2005;-73
2022/03/19 03:24:03;;;;;;;;;;;;;;;;;;1048375;28;4110;-73
2022/03/19 03:24:34;;;;;;;;;;;;;;;;;;1048025;28;2220;-74
2022/03/19 03:25:04;;;;;;;;;;;;;;;;;;1049270;28;3867;-75
2022/03/19 03:25:35;;;;;;;;;;;;;;;;;;1048003;28;2504;-73
2022/03/19 03:26:05;;;;;;;;;;;;;;;;;;1046814;28;3909;-73
2022/03/19 03:26:36;;;;;;;;;;;;;;;;;;1047640;28;1629;-73
2022/03/19 03:27:06;;;;;;;;;;;;;;;;;;1047454;28;3793;-72
2022/03/19 03:27:36;;;;;;;;;;;;;;;;;;1047861;28;2806;-74
2022/03/19 03:28:07;;;;;;;;;;;;;;;;;;1047598;28;3993;-72
2022/03/19 03:28:37;;;;;;;;;;;;;;;;;;1047643;28;2968;-72
2022/03/19 03:29:07;;;;;;;;;;;;;;;;;;1048742;28;4283;-74
2022/03/19 03:29:37;;;;;;;;;;;;;;;;;;1048210;28;1559;-72
2022/03/19 03:30:08;;;;;;;;;;;;;;;;;;1047383;28;3890;-73
2022/03/19 03:30:38;;;;;;;;;;;;;;;;;;1047051;28;2473;-72
2022/03/19 03:31:09;;;;;;;;;;;;;;;;;;1049476;28;3953;-73
2022/03/19 03:31:39;;;;;;;;;;;;;;;;;;1048459;28;2451;-72
2022/03/19 03:32:10;;;;;;;;;;;;;;;;;;1046979;28;4081;-73
2022/03/19 03:32:40;;;;;;;;;;;;;;;;;;1047620;28;2082;-73
2022/03/19 03:33:10;;;;;;;;;;;;;;;;;;1047093;28;3850;-74
2022/03/19 03:33:41;;;;;;;;;;;;;;;;;;1046396;28;1762;-73
2022/03/19 03:34:11;;;;;;;;;;;;;;;;;;1047290;28;3875;-73
2022/03/19 03:34:42;;;;;;;;;;;;;;;;;;1047288;28;1625;-72
2022/03/19 03:35:12;;;;;;;;;;;;;;;;;;1050053;28;3807;-73
2022/03/19 03:35:42;;;;;;;;;;;;;;;;;;1051033;28;2747;-74
2022/03/19 03:36:13;;;;;;;;;;;;;;;;;;1048985;28;3953;-73
2022/03/19 03:36:44;;;;;;;;;;;;;;;;;;1049960;28;1754;-74
2022/03/19 03:37:14;;;;;;;;;;;;;;;;;;1047185;28;3913;-75
2022/03/19 03:37:44;;;;;;;;;;;;;;;;;;1047993;28;2387;-73
2022/03/19 03:38:15;;;;;;;;;;;;;;;;;;1047327;28;4051;-74
2022/03/19 03:38:45;;;;;;;;;;;;;;;;;;1047807;28;2758;-75